WMKKWBKK

Guest
Details From WMKK - Kuala Lumpur Intl - Sepang
To WBKK - Kota Kinabalu Intl
Flight Number -
Tags Generated
Created
Modified
Stats Distance 880 nm / 1,630 km
Max Altitude 0 ft / 0 m
Waypoints 4
Social Downloads 3
Likes 0
Share VATSIM

Download

Looking for another format? Having issues loading an existing format? Contact us
Advertisement - Login to hide

Notes

Generated

Route

WMKK MUMSO R1784 WBKK

ID Type Via Altitude Latitude Longitude Leg Dist Tot Dist Heading (true) Name
O WMKK APT - 0 ft / 0 m 2.77828˚ 101.70172˚ - 0 nm - -
MUMSO FIX - 0 ft / 0 m 3.73889˚ 105.53694˚ 237 nm 237 nm 76° / 76° -
R1784 FIX - 0 ft / 0 m 5.92884˚ 116.04766˚ 642 nm 879 nm 78° / 79° -
O WBKK APT - 0 ft / 0 m 5.92478˚ 116.04594˚ 0 nm 879 nm 203° / 203° -

Altitude Profile

Advertisement - Login to hide

Weather


0- 5 10 15 20 25 30 35+ Temperature / ° C

Clouds and Precipitation
Forecast for 2017-12-18 18:00 UTC. Updated a minute ago

Ground ~20,000 ft ~40,000 ft Winds

WMKK

Details ICAO WMKK (KUL)
Name Kuala Lumpur Intl - Sepang
Region Malaysia (Peninsular Malaysia)
Timezone Asia/Kuala_Lumpur (UTC+8.0)
Stats Elevation 70 ft / 21 m (AMSL)
Location 2.745578° 101.709913°
Runways 2
Magnetic Variation 0.000° E

METAR

WMKK 181300Z 10005KT 050V140 9999 FEW030 SCT140 BKN280 27/24 Q1011 NOSIG

Decode

TAF

TAF WMKK 180500Z 1806/1912 07010KT 9999 FEW017CB SCT140 BKN280 PROB30 TEMPO 1807/1811 3000 TSRA FEW015CB SCT018

Decode

Departure Runways

ID Width Length Bearing (true) Bearing (mag) Surface Threshold Offset Overrun Length
14L 197 ft / 60 m 13,577 ft / 4,138 m 146.13° 146.13° Asphalt 500 ft / 152 m 0 ft / 0 m
14R 197 ft / 60 m 13,337 ft / 4,065 m 146.22° 146.22° Asphalt 500 ft / 152 m 0 ft / 0 m
32L 197 ft / 60 m 13,337 ft / 4,065 m 326.22° 326.22° Asphalt 500 ft / 152 m 0 ft / 0 m
32R 197 ft / 60 m 13,577 ft / 4,138 m 326.13° 326.13° Asphalt 500 ft / 152 m 0 ft / 0 m

WBKK

Details ICAO WBKK (BKI)
Name Kota Kinabalu Intl
Region Brunei and Malaysia
Timezone Asia/Kuching (UTC+8.0)
Stats Elevation 10 ft / 3 m (AMSL)
Location 5.937208° 116.051181°
Runways 1
Magnetic Variation 0.409° W

METAR

WBKK 181300Z VRB03KT 9999 FEW014 SCT040 BKN270 26/24 Q1008 NOSIG

Decode

TAF

TAF WBKK 181100Z 1812/1912 11007KT 9999 FEW012 TEMPO 1813/1817 5000 RA FEW012 FEW016CB SCT035

Decode

Destination Runways

ID Width Length Bearing (true) Bearing (mag) Surface Threshold Offset Overrun Length
02 150 ft / 46 m 9,836 ft / 2,998 m 22.73° 23.14° Asphalt 1,600 ft / 488 m 0 ft / 0 m
20 150 ft / 46 m 9,836 ft / 2,998 m 202.73° 203.14° Asphalt 200 ft / 61 m 0 ft / 0 m

Approach Navaids

Runway Type Ident Frequency Range Bearing (true) Bearing (mag) Slope Elevation
02 Localiser IKKS 110.30 MHz 18 nm / 33 km 22.73° 23.14° - 10 ft / 3 m (AMSL)
02 Glidescope IKKS 110.30 MHz 10 nm / 19 km 22.73° 23.14° 3.00° 10 ft / 3 m (AMSL)
02 DME IKKS 110.30 MHz 18 nm / 33 km - - - 10 ft / 3 m (AMSL)

Popular Alternatives